Time;durP1;ratioP1;P1;durP2;ratioP2;P2;SDS_P1;SDS_P2;PMS_P1;PMS_P2;Temp;Humidity;BMP_temperature;BMP_pressure;BME280_temperature;BME280_humidity;BME280_pressure;Samples;Min_cycle;Max_cycle;Signal;HPM_P1;HPM_P2
2022/10/06 00:02:21;;;;;;;3.10;2.10;;;;;;;12.34;72.92;97291.70;108246;1270;22559;-76
2022/10/06 00:04:52;;;;;;;5.90;2.50;;;;;;;12.34;72.92;97289.03;108246;1270;22534;-76
2022/10/06 00:07:23;;;;;;;6.60;2.30;;;;;;;12.33;73.08;97302.61;108244;1270;22555;-76
2022/10/06 00:09:54;;;;;;;9.90;3.00;;;;;;;12.32;73.23;97317.60;108064;1271;37535;-77
2022/10/06 00:12:25;;;;;;;3.40;2.30;;;;;;;12.31;73.32;97307.93;108294;1270;25249;-76
2022/10/06 00:14:56;;;;;;;4.10;2.80;;;;;;;12.32;73.41;97310.20;108207;1270;22558;-76
2022/10/06 00:17:27;;;;;;;3.30;2.60;;;;;;;12.33;73.30;97316.32;108276;1270;23278;-76
2022/10/06 00:19:58;;;;;;;3.30;2.20;;;;;;;12.34;73.29;97319.09;108177;1270;37592;-76
2022/10/06 00:22:35;;;;;;;4.00;2.50;;;;;;;12.30;73.48;97319.27;108296;1270;24033;-76
2022/10/06 00:25:08;;;;;;;6.40;2.70;;;;;;;12.27;73.51;97325.77;108353;1270;25374;-76
2022/10/06 00:27:41;;;;;;;3.90;2.20;;;;;;;12.25;73.65;97329.07;108324;1270;22557;-76
2022/10/06 00:30:15;;;;;;;5.00;3.00;;;;;;;12.22;73.65;97322.25;108283;1271;23957;-76
2022/10/06 00:32:55;;;;;;;3.50;2.70;;;;;;;12.22;73.71;97330.29;108301;1270;22567;-76
2022/10/06 00:35:30;;;;;;;4.20;3.10;;;;;;;12.19;73.85;97318.48;108268;1270;23724;-76
2022/10/06 00:38:02;;;;;;;5.90;3.10;;;;;;;12.20;73.86;97325.56;108316;1270;22532;-76
2022/10/06 00:40:34;;;;;;;5.60;3.00;;;;;;;12.16;73.94;97328.19;108235;1270;25581;-76
2022/10/06 00:43:06;;;;;;;2.10;1.50;;;;;;;12.12;73.98;97325.11;108234;1270;24253;-76
2022/10/06 00:45:42;;;;;;;3.60;2.00;;;;;;;12.14;74.18;97327.71;108273;1270;22575;-76
2022/10/06 00:48:18;;;;;;;4.70;2.20;;;;;;;12.17;74.07;97334.98;108303;1270;22785;-76
2022/10/06 00:50:51;;;;;;;4.80;3.10;;;;;;;12.20;74.04;97332.20;108317;1270;22527;-76
2022/10/06 00:53:23;;;;;;;3.70;2.70;;;;;;;12.21;73.95;97337.57;108222;1271;22689;-76
2022/10/06 00:55:54;;;;;;;4.50;2.90;;;;;;;12.18;73.89;97338.06;108285;1269;22557;-76
2022/10/06 00:58:25;;;;;;;6.60;2.80;;;;;;;12.12;73.99;97336.59;108246;1270;22560;-76
2022/10/06 01:00:57;;;;;;;2.80;2.20;;;;;;;12.09;74.17;97340.84;108354;1270;22702;-76
2022/10/06 01:03:33;;;;;;;3.60;2.10;;;;;;;12.12;74.44;97340.85;108370;1270;22549;-76
2022/10/06 01:06:04;;;;;;;7.50;2.80;;;;;;;12.16;74.26;97344.34;108358;1270;22549;-76
2022/10/06 01:08:37;;;;;;;5.60;3.00;;;;;;;12.17;74.11;97355.94;108277;1271;30829;-76
2022/10/06 01:11:13;;;;;;;4.70;2.80;;;;;;;12.13;74.12;97356.16;108355;1268;22631;-76
2022/10/06 01:13:46;;;;;;;4.60;2.50;;;;;;;12.14;74.26;97351.33;108332;1268;23306;-76
2022/10/06 01:16:23;;;;;;;4.90;2.80;;;;;;;12.17;74.16;97355.02;108331;1270;22750;-77
2022/10/06 01:18:55;;;;;;;3.30;2.30;;;;;;;12.19;74.15;97367.04;108252;1270;27367;-77
2022/10/06 01:21:32;;;;;;;4.40;2.20;;;;;;;12.21;74.17;97362.88;108230;1270;22541;-76
2022/10/06 01:24:05;;;;;;;3.70;2.70;;;;;;;12.18;74.04;97363.20;108270;1270;22656;-76
2022/10/06 01:26:40;;;;;;;4.50;2.50;;;;;;;12.17;73.97;97362.58;108326;1270;22568;-76
2022/10/06 01:29:12;;;;;;;5.90;2.60;;;;;;;12.19;73.94;97363.05;108159;1271;36350;-76
2022/10/06 01:31:43;;;;;;;4.50;2.50;;;;;;;12.18;73.96;97369.86;108316;1270;22542;-77
2022/10/06 01:34:14;;;;;;;5.60;3.10;;;;;;;12.17;74.04;97369.06;108323;1270;22630;-76
2022/10/06 01:36:45;;;;;;;5.10;3.00;;;;;;;12.15;74.10;97373.05;108338;1270;25236;-77
2022/10/06 01:39:16;;;;;;;3.70;2.20;;;;;;;12.11;74.14;97377.10;108245;1270;27193;-76
2022/10/06 01:41:47;;;;;;;7.30;3.00;;;;;;;12.10;74.31;97378.38;108311;1271;22692;-76
2022/10/06 01:44:19;;;;;;;5.20;2.60;;;;;;;12.14;74.22;97378.12;108278;1270;25387;-76
2022/10/06 01:46:50;;;;;;;5.00;2.20;;;;;;;12.13;73.91;97375.09;108302;1270;22690;-76
2022/10/06 01:49:21;;;;;;;3.60;2.40;;;;;;;12.13;74.13;97377.48;108198;1270;30701;-76
2022/10/06 01:51:52;;;;;;;4.60;3.00;;;;;;;12.11;74.04;97382.42;108277;1270;22663;-76
2022/10/06 01:54:23;;;;;;;4.90;2.90;;;;;;;12.09;74.32;97372.73;108318;1270;22578;-76
2022/10/06 01:56:54;;;;;;;3.60;2.30;;;;;;;12.04;74.44;97384.87;108331;1270;22545;-76
2022/10/06 01:59:25;;;;;;;4.20;2.70;;;;;;;12.02;74.65;97385.94;108305;1270;29090;-76
2022/10/06 02:01:56;;;;;;;3.90;2.00;;;;;;;12.02;74.68;97384.02;108314;1270;22523;-76
2022/10/06 02:04:27;;;;;;;5.70;2.60;;;;;;;12.02;74.60;97391.95;108357;1270;25293;-76
2022/10/06 02:06:58;;;;;;;3.70;2.80;;;;;;;11.99;74.57;97391.85;108330;1271;22682;-76
2022/10/06 02:09:29;;;;;;;4.20;2.20;;;;;;;11.96;74.72;97398.06;108167;1270;24825;-76
2022/10/06 02:12:01;;;;;;;5.40;2.50;;;;;;;11.89;74.82;97392.33;108302;1270;22595;-77
2022/10/06 02:14:34;;;;;;;4.30;2.50;;;;;;;11.85;75.03;97404.45;108318;1270;22545;-77
2022/10/06 02:17:06;;;;;;;2.70;2.20;;;;;;;11.85;75.18;97397.96;108285;1270;22692;-76
2022/10/06 02:19:37;;;;;;;4.30;2.90;;;;;;;11.87;75.15;97404.92;108277;1270;22592;-77
2022/10/06 02:22:08;;;;;;;2.90;2.60;;;;;;;11.82;75.12;97406.84;108335;1270;22558;-77
2022/10/06 02:24:39;;;;;;;5.80;2.20;;;;;;;11.78;75.27;97407.40;108199;1268;199278;-77
2022/10/06 02:27:10;;;;;;;5.00;3.10;;;;;;;11.78;75.37;97403.30;108344;1271;24270;-77
2022/10/06 02:29:41;;;;;;;4.30;2.70;;;;;;;11.80;75.35;97405.45;108231;1270;33848;-77
2022/10/06 02:32:12;;;;;;;4.60;2.20;;;;;;;11.77;75.04;97409.73;108333;1270;22536;-77
2022/10/06 02:34:43;;;;;;;5.40;2.60;;;;;;;11.78;75.08;97399.05;108323;1270;22635;-77
2022/10/06 02:37:16;;;;;;;5.00;2.40;;;;;;;11.80;75.02;97411.33;108287;1269;22548;-77
2022/10/06 02:39:47;;;;;;;5.30;2.40;;;;;;;11.77;75.04;97408.98;108237;1270;26787;-77
2022/10/06 02:42:18;;;;;;;4.30;2.50;;;;;;;11.81;74.80;97411.02;108314;1270;23873;-77
2022/10/06 02:44:51;;;;;;;3.60;2.00;;;;;;;11.80;74.77;97411.88;108360;1270;22530;-76
2022/10/06 02:47:22;;;;;;;3.50;2.60;;;;;;;11.82;74.94;97402.96;108339;1268;25368;-77
2022/10/06 02:49:53;;;;;;;1.90;1.70;;;;;;;11.88;74.73;97413.00;108304;1270;27041;-76
2022/10/06 02:52:24;;;;;;;4.40;2.60;;;;;;;11.84;74.60;97412.48;108294;1270;22609;-77
2022/10/06 02:54:55;;;;;;;3.60;2.60;;;;;;;11.83;75.07;97415.88;108317;1270;24240;-77
2022/10/06 02:57:29;;;;;;;2.50;2.20;;;;;;;11.75;75.40;97417.33;108245;1271;25408;-77
2022/10/06 03:00:00;;;;;;;4.50;2.30;;;;;;;11.69;75.79;97417.91;108247;1271;28884;-76
2022/10/06 03:02:33;;;;;;;4.90;2.90;;;;;;;11.66;76.17;97412.73;108323;1270;22530;-76
2022/10/06 03:05:04;;;;;;;2.90;2.20;;;;;;;11.62;76.54;97414.18;108212;1271;22680;-76
2022/10/06 03:07:35;;;;;;;3.80;2.20;;;;;;;11.62;76.79;97407.87;108315;1270;23411;-76
2022/10/06 03:10:08;;;;;;;5.00;2.60;;;;;;;11.59;77.11;97407.82;108272;1270;30352;-76
2022/10/06 03:12:39;;;;;;;5.50;3.00;;;;;;;11.54;77.41;97419.38;108354;1268;25245;-77
2022/10/06 03:15:11;;;;;;;5.90;3.30;;;;;;;11.49;77.67;97417.19;108294;1270;22542;-77
2022/10/06 03:17:42;;;;;;;4.80;2.50;;;;;;;11.44;77.88;97428.04;108367;1268;22553;-77
2022/10/06 03:20:13;;;;;;;4.30;2.40;;;;;;;11.40;78.17;97426.33;108191;1270;33813;-77
2022/10/06 03:22:44;;;;;;;6.60;2.10;;;;;;;11.37;78.44;97433.73;108358;1268;22543;-77
2022/10/06 03:25:18;;;;;;;5.30;2.30;;;;;;;11.34;78.67;97428.64;108361;1268;22605;-76
2022/10/06 03:27:49;;;;;;;4.90;2.70;;;;;;;11.31;78.86;97432.04;108334;1269;22858;-76
2022/10/06 03:30:20;;;;;;;4.20;2.40;;;;;;;11.33;79.00;97423.65;108235;1271;30843;-76
2022/10/06 03:32:53;;;;;;;4.00;2.60;;;;;;;11.36;78.87;97432.73;108293;1270;23240;-76
2022/10/06 03:35:24;;;;;;;6.70;3.20;;;;;;;11.35;78.88;97425.98;108329;1271;22482;-77
2022/10/06 03:37:56;;;;;;;3.90;3.00;;;;;;;11.36;78.87;97433.63;108369;1269;22538;-76
2022/10/06 03:40:27;;;;;;;3.30;2.30;;;;;;;11.35;78.78;97439.05;108272;1270;28528;-77
2022/10/06 03:42:58;;;;;;;3.40;1.80;;;;;;;11.38;78.93;97436.29;108321;1270;22695;-76
2022/10/06 03:45:29;;;;;;;4.50;2.30;;;;;;;11.47;78.58;97428.77;108239;1271;22566;-76
2022/10/06 03:48:00;;;;;;;3.30;2.30;;;;;;;11.54;78.29;97436.70;108311;1271;22682;-76
2022/10/06 03:50:31;;;;;;;4.70;2.70;;;;;;;11.52;78.19;97440.73;108288;1268;27545;-76
2022/10/06 03:53:04;;;;;;;3.50;2.60;;;;;;;11.50;78.17;97448.42;108357;1268;22692;-76
2022/10/06 03:55:35;;;;;;;2.70;1.80;;;;;;;11.47;78.24;97437.05;108299;1270;25232;-76
2022/10/06 03:58:06;;;;;;;4.50;2.80;;;;;;;11.46;78.29;97433.45;108370;1268;22575;-76
2022/10/06 04:00:37;;;;;;;3.60;2.60;;;;;;;11.43;78.21;97440.20;108246;1270;25801;-77
2022/10/06 04:03:08;;;;;;;5.20;2.70;;;;;;;11.39;78.37;97436.66;108219;1271;23869;-76
2022/10/06 04:05:42;;;;;;;4.00;2.80;;;;;;;11.37;78.61;97440.01;108289;1271;22572;-76
2022/10/06 04:08:14;;;;;;;3.60;2.50;;;;;;;11.33;78.69;97440.80;108247;1271;22596;-77
2022/10/06 04:10:45;;;;;;;5.80;2.90;;;;;;;11.29;78.89;97449.25;108213;1271;28597;-76
2022/10/06 04:13:19;;;;;;;5.20;2.80;;;;;;;11.27;78.97;97447.01;108190;1270;23721;-76
2022/10/06 04:15:50;;;;;;;3.80;3.10;;;;;;;11.27;78.94;97455.29;108180;1271;22609;-77
2022/10/06 04:18:24;;;;;;;4.30;2.50;;;;;;;11.23;79.03;97459.13;108235;1271;22550;-77
2022/10/06 04:21:02;;;;;;;3.50;2.70;;;;;;;11.20;78.99;97465.61;108259;1271;22528;-77
2022/10/06 04:23:35;;;;;;;3.40;2.80;;;;;;;11.19;79.11;97466.77;108258;1271;24030;-77
2022/10/06 04:26:11;;;;;;;3.40;2.30;;;;;;;11.15;79.05;97466.98;108265;1270;22544;-77
2022/10/06 04:28:44;;;;;;;5.10;3.00;;;;;;;11.12;79.26;97466.17;108169;1271;30552;-77
2022/10/06 04:31:22;;;;;;;6.20;2.80;;;;;;;11.10;79.33;97468.91;108191;1271;25936;-77
2022/10/06 04:33:55;;;;;;;3.70;2.60;;;;;;;11.09;79.57;97472.84;108154;1271;22668;-76
2022/10/06 04:36:28;;;;;;;7.10;2.80;;;;;;;11.11;79.54;97465.20;108294;1270;24238;-77
2022/10/06 04:39:02;;;;;;;3.30;2.50;;;;;;;11.10;79.45;97460.52;108179;1269;32262;-76
2022/10/06 04:41:38;;;;;;;4.80;2.60;;;;;;;11.10;79.55;97458.23;108211;1270;22502;-76
2022/10/06 04:44:09;;;;;;;4.20;2.60;;;;;;;11.12;79.75;97466.12;108257;1270;22551;-77
2022/10/06 04:46:41;;;;;;;3.50;2.50;;;;;;;11.15;79.79;97462.16;108241;1271;22570;-77
2022/10/06 04:49:13;;;;;;;3.90;2.80;;;;;;;11.15;79.64;97471.23;108196;1271;23209;-77
2022/10/06 04:51:47;;;;;;;3.10;2.80;;;;;;;11.13;79.68;97468.41;108186;1271;24207;-77
2022/10/06 04:54:18;;;;;;;9.60;3.10;;;;;;;11.13;79.67;97472.55;108262;1271;23447;-77
2022/10/06 04:56:49;;;;;;;4.20;2.80;;;;;;;11.15;79.85;97472.23;108207;1269;22723;-77
2022/10/06 05:00:21;;;;;;;5.60;2.80;;;;;;;11.19;79.75;97478.23;108181;1270;32447;-77
2022/10/06 05:02:12;;;;;;;5.40;2.70;;;;;;;11.26;79.72;97480.70;108210;1271;22718;-77
2022/10/06 05:04:43;;;;;;;4.00;2.50;;;;;;;11.29;79.55;97485.82;108264;1271;25233;-83
2022/10/06 05:07:15;;;;;;;4.60;2.90;;;;;;;11.38;79.63;97488.44;108250;1270;22596;-82
2022/10/06 05:09:46;;;;;;;3.30;2.60;;;;;;;11.68;79.45;97486.34;108171;1271;25180;-82
2022/10/06 05:12:17;;;;;;;3.10;2.10;;;;;;;12.04;78.83;97487.25;108228;1271;22675;-82
2022/10/06 05:14:48;;;;;;;3.70;2.40;;;;;;;12.39;78.14;97491.33;108236;1271;22534;-82
2022/10/06 05:17:19;;;;;;;4.30;2.30;;;;;;;12.71;77.26;97493.08;108247;1271;24216;-82
2022/10/06 05:19:51;;;;;;;4.30;2.60;;;;;;;12.99;76.47;97494.59;108181;1271;24581;-82
2022/10/06 05:22:22;;;;;;;3.30;2.40;;;;;;;13.45;76.05;97491.86;108263;1271;25928;-82
2022/10/06 05:24:53;;;;;;;3.60;2.20;;;;;;;13.85;74.48;97489.48;108260;1271;22616;-82
2022/10/06 05:27:24;;;;;;;2.90;2.30;;;;;;;14.16;73.19;97493.27;108281;1269;24247;-82
2022/10/06 05:29:55;;;;;;;2.80;2.20;;;;;;;14.41;72.10;97500.80;108161;1271;30817;-83
2022/10/06 05:32:26;;;;;;;5.40;2.80;;;;;;;14.53;71.05;97503.59;108169;1271;22565;-82
2022/10/06 05:34:57;;;;;;;3.90;2.20;;;;;;;14.71;70.61;97503.73;108212;1271;22688;-82
2022/10/06 05:37:29;;;;;;;3.20;2.10;;;;;;;15.04;70.22;97508.23;108245;1270;25303;-82
2022/10/06 05:40:00;;;;;;;3.30;2.10;;;;;;;15.40;68.31;97502.55;108129;1271;25509;-82
2022/10/06 05:42:32;;;;;;;2.60;2.10;;;;;;;15.54;67.43;97510.98;108217;1271;22711;-82
2022/10/06 05:45:03;;;;;;;4.10;2.00;;;;;;;16.00;67.45;97510.73;108301;1270;22900;-83
2022/10/06 05:47:34;;;;;;;4.90;2.30;;;;;;;16.46;65.67;97512.25;108305;1271;25257;-82
2022/10/06 05:50:06;;;;;;;2.60;1.80;;;;;;;16.70;64.65;97515.55;108249;1268;33170;-82
2022/10/06 05:52:37;;;;;;;3.00;2.10;;;;;;;16.76;63.82;97521.08;108348;1268;22552;-81
2022/10/06 05:55:09;;;;;;;4.60;2.60;;;;;;;17.15;63.91;97525.66;108315;1268;22699;-82
2022/10/06 05:57:40;;;;;;;3.60;2.00;;;;;;;17.41;60.59;97517.89;108354;1268;22531;-82
2022/10/06 06:00:13;;;;;;;3.00;1.90;;;;;;;17.09;59.71;97525.87;108274;1267;24987;-82
2022/10/06 06:02:44;;;;;;;4.80;2.20;;;;;;;16.94;59.80;97525.25;108315;1268;22861;-81
2022/10/06 06:05:18;;;;;;;4.70;2.40;;;;;;;16.99;59.53;97521.08;108296;1268;24475;-82
2022/10/06 06:07:51;;;;;;;4.70;2.10;;;;;;;17.01;59.36;97536.80;108323;1268;24214;-82
2022/10/06 06:10:23;;;;;;;4.30;1.70;;;;;;;17.20;58.52;97532.10;108254;1268;33890;-81
2022/10/06 06:12:54;;;;;;;4.10;2.60;;;;;;;17.21;58.11;97537.85;108344;1268;24235;-82
2022/10/06 06:18:14;;;;;;;2.70;1.70;;;;;;;17.53;57.26;97538.72;108298;1268;22587;-83
2022/10/06 06:20:54;;;;;;;4.20;2.30;;;;;;;17.66;57.23;97538.45;108265;1270;27996;-82
2022/10/06 06:23:26;;;;;;;3.40;2.40;;;;;;;17.97;57.34;97541.80;108297;1270;22544;-82
2022/10/06 06:26:05;;;;;;;3.80;2.30;;;;;;;18.68;56.90;97535.61;108200;1271;22649;-82
2022/10/06 06:28:39;;;;;;;3.70;1.80;;;;;;;19.17;55.95;97538.25;108301;1270;28533;-82
2022/10/06 06:31:11;;;;;;;4.10;2.10;;;;;;;19.58;55.22;97543.26;108248;1270;22536;-82
2022/10/06 06:33:43;;;;;;;4.00;1.90;;;;;;;20.32;54.94;97546.17;108215;1270;22641;-82
2022/10/06 06:36:18;;;;;;;2.20;1.60;;;;;;;20.73;53.49;97547.17;108251;1270;22573;-82
2022/10/06 06:38:51;;;;;;;3.70;1.80;;;;;;;21.01;51.97;97548.94;108211;1270;30310;-82
2022/10/06 06:41:24;;;;;;;3.90;1.90;;;;;;;21.12;51.04;97544.19;108329;1268;25394;-82
2022/10/06 06:43:56;;;;;;;3.40;1.80;;;;;;;21.24;51.04;97544.77;108342;1268;23120;-82
2022/10/06 06:46:30;;;;;;;2.70;1.60;;;;;;;21.54;50.63;97550.09;108313;1268;22529;-82
2022/10/06 06:49:04;;;;;;;3.30;1.80;;;;;;;21.92;50.67;97552.87;108242;1267;27818;-82
2022/10/06 06:51:37;;;;;;;3.00;1.80;;;;;;;22.44;49.52;97551.55;108240;1270;22570;-82
2022/10/06 06:54:09;;;;;;;3.10;1.60;;;;;;;22.87;48.55;97551.82;108287;1270;23193;-82
2022/10/06 06:56:41;;;;;;;2.80;1.80;;;;;;;22.91;47.13;97553.98;108247;1270;22599;-82
2022/10/06 06:59:13;;;;;;;2.80;1.40;;;;;;;23.26;47.72;97554.35;108194;1270;27782;-81
2022/10/06 07:01:46;;;;;;;4.30;1.70;;;;;;;23.44;45.70;97550.15;108237;1270;22695;-82
2022/10/06 07:04:19;;;;;;;2.50;1.70;;;;;;;22.77;45.49;97549.55;108236;1270;22541;-82
2022/10/06 07:06:56;;;;;;;3.70;1.80;;;;;;;22.90;45.97;97546.28;108249;1270;22589;-81
2022/10/06 07:09:28;;;;;;;2.50;1.60;;;;;;;21.99;46.39;97553.29;108167;1270;33830;-81
2022/10/06 07:11:59;;;;;;;3.70;1.80;;;;;;;21.23;47.70;97550.65;108200;1270;25374;-82
2022/10/06 07:14:33;;;;;;;3.60;1.90;;;;;;;20.33;48.47;97553.83;108196;1271;23942;-81
2022/10/06 07:25:36;;;;;;;4.00;2.60;;;;;;;22.38;49.33;97566.66;108128;1267;22619;-82
2022/10/06 07:28:10;;;;;;;3.10;1.90;;;;;;;22.87;47.28;97560.23;108192;1270;23300;-82
2022/10/06 07:30:43;;;;;;;1.80;1.60;;;;;;;23.33;45.58;97559.61;108204;1270;25316;-81
2022/10/06 07:33:14;;;;;;;2.50;1.70;;;;;;;22.73;46.05;97570.27;108247;1270;22546;-82
2022/10/06 07:35:45;;;;;;;2.90;1.70;;;;;;;22.33;46.68;97575.23;108231;1268;22469;-82
2022/10/06 07:38:17;;;;;;;4.90;1.80;;;;;;;21.76;47.35;97574.40;108202;1270;22556;-82
2022/10/06 07:40:55;;;;;;;3.80;1.60;;;;;;;21.35;48.56;97578.55;108219;1270;23909;-81
2022/10/06 07:43:26;;;;;;;3.10;1.90;;;;;;;21.16;48.79;97584.33;108263;1270;22537;-82
2022/10/06 07:45:57;;;;;;;3.30;1.80;;;;;;;20.85;49.56;97591.33;108268;1269;22852;-82
2022/10/06 07:48:29;;;;;;;4.00;1.60;;;;;;;20.64;50.36;97597.28;108167;1270;23536;-81
2022/10/06 07:51:00;;;;;;;5.50;2.50;;;;;;;20.55;50.72;97598.44;108231;1270;24238;-82
2022/10/06 07:53:34;;;;;;;2.50;2.00;;;;;;;20.29;51.24;97600.40;108185;1270;22678;-82
2022/10/06 07:56:09;;;;;;;2.80;1.80;;;;;;;19.93;51.24;97604.23;108260;1270;25283;-82
2022/10/06 07:58:43;;;;;;;3.60;2.10;;;;;;;19.58;51.83;97601.67;108156;1270;30349;-81
2022/10/06 08:01:16;;;;;;;2.90;2.20;;;;;;;19.37;53.00;97608.19;108265;1270;22523;-82
2022/10/06 08:03:49;;;;;;;2.00;1.80;;;;;;;19.23;53.37;97611.66;108182;1270;22538;-82
2022/10/06 08:06:22;;;;;;;5.20;1.80;;;;;;;19.08;53.93;97612.05;108251;1270;22565;-81
2022/10/06 08:08:55;;;;;;;2.70;1.90;;;;;;;18.94;54.38;97615.45;108226;1270;23823;-81
2022/10/06 08:11:29;;;;;;;2.60;2.20;;;;;;;18.76;54.52;97615.23;108204;1270;22543;-81
2022/10/06 08:14:00;;;;;;;2.70;1.90;;;;;;;18.90;55.18;97611.69;108237;1269;22568;-81
2022/10/06 08:16:31;;;;;;;4.10;2.30;;;;;;;19.30;55.16;97613.19;108190;1271;22592;-81
2022/10/06 08:19:02;;;;;;;4.10;2.00;;;;;;;19.69;54.07;97615.20;108127;1271;27960;-81
2022/10/06 08:21:34;;;;;;;4.40;2.30;;;;;;;19.59;54.19;97623.11;108197;1270;22592;-81
2022/10/06 08:24:06;;;;;;;3.70;2.00;;;;;;;19.52;55.06;97626.69;108225;1270;22957;-81
2022/10/06 08:26:37;;;;;;;5.60;2.30;;;;;;;20.20;54.75;97624.91;108258;1270;22530;-82
2022/10/06 08:29:09;;;;;;;4.40;1.70;;;;;;;20.24;53.53;97632.27;108199;1270;30706;-82
2022/10/06 08:31:40;;;;;;;2.20;1.90;;;;;;;20.32;53.78;97633.41;108278;1269;22581;-81
2022/10/06 08:34:11;;;;;;;2.10;1.70;;;;;;;20.60;52.69;97635.17;108241;1270;25417;-81
2022/10/06 08:36:43;;;;;;;2.60;1.80;;;;;;;20.63;52.17;97639.30;108225;1270;23327;-82
2022/10/06 08:39:14;;;;;;;5.00;1.90;;;;;;;20.52;52.83;97638.30;108178;1270;24024;-82
2022/10/06 08:41:50;;;;;;;2.10;1.90;;;;;;;20.77;53.05;97646.45;108273;1270;23359;-82
2022/10/06 08:44:30;;;;;;;2.60;1.90;;;;;;;20.95;52.00;97645.80;108169;1270;22564;-81
2022/10/06 08:47:10;;;;;;;3.10;2.00;;;;;;;20.89;52.14;97646.50;108205;1270;22546;-82
2022/10/06 08:49:44;;;;;;;4.90;2.00;;;;;;;20.82;52.48;97655.19;108172;1270;23609;-82
2022/10/06 08:52:36;;;;;;;4.10;1.90;;;;;;;20.85;51.70;97654.55;108287;1268;22680;-82
2022/10/06 08:55:25;;;;;;;3.00;2.00;;;;;;;20.55;52.22;97655.48;108248;1270;22629;-82
2022/10/06 08:58:09;;;;;;;2.60;2.10;;;;;;;20.59;52.39;97658.12;108273;1270;25448;-82
2022/10/06 09:00:41;;;;;;;2.50;2.10;;;;;;;20.44;52.87;97674.59;108203;1270;30355;-83
2022/10/06 09:03:22;;;;;;;2.80;2.20;;;;;;;20.24;52.84;97672.45;108184;1271;23315;-82
2022/10/06 09:05:57;;;;;;;3.40;2.10;;;;;;;19.95;53.13;97676.02;108248;1270;22559;-83
2022/10/06 09:08:52;;;;;;;3.40;2.10;;;;;;;19.68;53.84;97682.30;108221;1270;33088;-82
2022/10/06 09:11:42;;;;;;;3.90;1.70;;;;;;;19.65;54.35;97684.85;108278;1270;25934;-82
2022/10/06 09:14:20;;;;;;;7.10;2.10;;;;;;;19.58;53.64;97684.11;108257;1270;22979;-83
2022/10/06 09:16:59;;;;;;;3.60;1.90;;;;;;;19.59;53.91;97693.64;108183;1270;25940;-83
2022/10/06 09:19:42;;;;;;;4.10;2.20;;;;;;;19.56;54.34;97695.14;108221;1268;30671;-83
2022/10/06 09:22:19;;;;;;;2.50;1.90;;;;;;;19.37;53.27;97696.71;108350;1268;23143;-83
2022/10/06 09:24:56;;;;;;;4.20;2.10;;;;;;;19.12;53.96;97702.36;108365;1268;22770;-82
2022/10/06 09:27:32;;;;;;;3.40;2.10;;;;;;;19.12;54.59;97709.19;108353;1268;22566;-83
2022/10/06 09:30:05;;;;;;;3.70;2.20;;;;;;;19.07;54.77;97704.38;108213;1270;30735;-83
2022/10/06 09:32:38;;;;;;;4.40;2.10;;;;;;;18.89;54.70;97707.27;108236;1269;23468;-82
2022/10/06 09:35:19;;;;;;;5.30;2.40;;;;;;;18.70;55.54;97708.07;108204;1271;24266;-83
2022/10/06 09:38:03;;;;;;;3.70;2.30;;;;;;;18.63;55.92;97710.91;108263;1270;22564;-83
2022/10/06 09:40:40;;;;;;;3.30;2.20;;;;;;;18.56;56.30;97710.41;108250;1270;30024;-82
2022/10/06 09:43:22;;;;;;;2.50;2.20;;;;;;;18.60;56.88;97716.34;108289;1270;22548;-83
2022/10/06 09:45:54;;;;;;;4.70;2.20;;;;;;;18.72;56.89;97725.29;108313;1270;22551;-82
2022/10/06 09:48:27;;;;;;;4.00;2.40;;;;;;;18.86;56.96;97725.09;108202;1270;29737;-81
2022/10/06 09:51:15;;;;;;;4.80;2.50;;;;;;;19.01;57.25;97728.37;108200;1270;22548;-82
2022/10/06 09:54:12;;;;;;;3.00;2.30;;;;;;;19.08;57.07;97732.52;108271;1270;22663;-83
2022/10/06 09:56:46;;;;;;;3.50;2.30;;;;;;;19.17;57.63;97735.31;108262;1270;22702;-82
2022/10/06 09:59:25;;;;;;;3.60;2.20;;;;;;;19.17;57.47;97738.27;108213;1270;22812;-83
2022/10/06 10:01:58;;;;;;;3.60;2.10;;;;;;;19.11;57.45;97736.90;108343;1270;22588;-82
2022/10/06 10:04:32;;;;;;;4.10;2.50;;;;;;;19.13;57.71;97742.34;108451;1270;22561;-83
2022/10/06 10:07:23;;;;;;;3.50;2.50;;;;;;;19.09;57.45;97745.81;108369;1270;22535;-82
2022/10/06 10:10:10;;;;;;;3.00;2.30;;;;;;;18.96;57.54;97747.96;108305;1268;23280;-82
2022/10/06 10:12:51;;;;;;;2.90;2.40;;;;;;;18.84;57.77;97747.73;108329;1268;25286;-82
2022/10/06 10:15:31;;;;;;;3.70;2.90;;;;;;;18.82;57.91;97749.13;108381;1268;22707;-82
2022/10/06 10:18:05;;;;;;;5.10;2.50;;;;;;;18.74;58.40;97756.73;108263;1270;23698;-83
2022/10/06 10:20:39;;;;;;;3.60;2.50;;;;;;;18.72;58.58;97759.30;108280;1268;22686;-82
2022/10/06 10:23:23;;;;;;;5.20;3.10;;;;;;;18.78;58.81;97758.40;108330;1268;22579;-83
2022/10/06 10:26:08;;;;;;;4.60;2.90;;;;;;;18.77;58.62;97755.27;108310;1270;22549;-82
2022/10/06 10:28:53;;;;;;;3.50;2.70;;;;;;;18.78;59.13;97751.85;108301;1268;23780;-82
2022/10/06 10:31:33;;;;;;;4.00;2.80;;;;;;;18.78;59.34;97752.40;108259;1269;22526;-82
2022/10/06 10:34:12;;;;;;;7.50;2.80;;;;;;;18.90;59.63;97753.96;108309;1268;24046;-83
2022/10/06 10:36:50;;;;;;;7.40;2.80;;;;;;;18.82;59.61;97755.74;108239;1270;23880;-82
2022/10/06 10:39:30;;;;;;;3.70;2.90;;;;;;;18.66;60.04;97759.19;108262;1268;33690;-82
2022/10/06 10:42:09;;;;;;;5.30;2.60;;;;;;;18.59;60.22;97752.35;108284;1270;24271;-82
2022/10/06 10:44:49;;;;;;;3.80;2.80;;;;;;;18.52;60.50;97752.88;108354;1268;22538;-82
2022/10/06 10:47:26;;;;;;;5.90;2.90;;;;;;;18.57;60.80;97752.49;108343;1268;22547;-82
2022/10/06 10:50:06;;;;;;;4.90;2.60;;;;;;;18.64;60.91;97756.09;108287;1268;31943;-82
2022/10/06 10:52:43;;;;;;;4.50;2.80;;;;;;;18.60;60.90;97753.46;108351;1268;22555;-83
2022/10/06 10:55:26;;;;;;;5.40;2.90;;;;;;;18.59;61.30;97751.23;108280;1269;23790;-82
2022/10/06 10:58:04;;;;;;;3.40;2.70;;;;;;;18.60;61.50;97754.65;108296;1270;25305;-82
2022/10/06 11:00:42;;;;;;;5.40;2.70;;;;;;;18.70;61.73;97750.36;108248;1268;26106;-82
2022/10/06 11:03:14;;;;;;;5.70;2.70;;;;;;;18.82;61.84;97748.41;108332;1267;24234;-82
2022/10/06 11:06:05;;;;;;;3.90;2.60;;;;;;;18.85;61.57;97746.03;108328;1268;24193;-82
2022/10/06 11:08:46;;;;;;;5.90;2.90;;;;;;;18.87;61.72;97742.52;108182;1270;29132;-82
2022/10/06 11:11:29;;;;;;;4.20;2.70;;;;;;;18.85;61.66;97744.92;108352;1268;22557;-82
2022/10/06 11:14:03;;;;;;;4.50;2.60;;;;;;;18.93;61.77;97738.36;108292;1270;24395;-83
2022/10/06 11:16:46;;;;;;;3.90;2.50;;;;;;;18.91;61.91;97735.44;108376;1268;24371;-82
2022/10/06 11:19:28;;;;;;;5.70;2.90;;;;;;;18.90;61.75;97737.55;108239;1270;31990;-81
2022/10/06 11:22:09;;;;;;;3.50;2.10;;;;;;;18.91;61.95;97738.98;108321;1270;22631;-82
2022/10/06 11:24:43;;;;;;;;;;;;;;;18.97;62.14;97735.34;108357;1268;22539;-82
2022/10/06 11:27:34;;;;;;;5.60;3.20;;;;;;;18.94;62.32;97739.38;108270;1270;25286;-82
2022/10/06 11:30:13;;;;;;;3.20;2.20;;;;;;;18.97;62.66;97742.02;108224;1268;36473;-83
2022/10/06 11:33:00;;;;;;;4.90;2.90;;;;;;;18.93;61.73;97745.05;108332;1268;23218;-82
2022/10/06 11:35:38;;;;;;;4.70;2.60;;;;;;;18.87;62.29;97740.54;108353;1268;22566;-82
2022/10/06 11:38:16;;;;;;;3.90;2.30;;;;;;;18.88;62.23;97742.44;108307;1270;22563;-82
2022/10/06 11:41:07;;;;;;;5.80;2.60;;;;;;;18.88;62.60;97743.25;108280;1268;33015;-82
2022/10/06 11:43:46;;;;;;;6.00;2.80;;;;;;;18.88;62.84;97745.19;108349;1268;24214;-83
2022/10/06 11:46:31;;;;;;;6.40;2.60;;;;;;;19.01;63.17;97745.69;108346;1268;22548;-83
2022/10/06 11:49:47;;;;;;;4.40;2.50;;;;;;;19.08;62.80;97751.18;108276;1268;22632;-82
2022/10/06 11:52:55;;;;;;;4.20;2.30;;;;;;;19.09;62.39;97747.96;108355;1268;26270;-82
2022/10/06 11:55:27;;;;;;;2.80;2.00;;;;;;;19.00;62.42;97753.08;108292;1270;22653;-82
2022/10/06 11:58:18;;;;;;;3.80;2.70;;;;;;;18.97;62.55;97759.41;108324;1268;22644;-82
2022/10/06 12:00:50;;;;;;;3.70;2.60;;;;;;;18.90;62.68;97766.54;108346;1268;23091;-82
2022/10/06 12:03:47;;;;;;;5.00;2.40;;;;;;;18.85;62.61;97765.17;108330;1268;25234;-82
2022/10/06 12:06:53;;;;;;;4.20;2.30;;;;;;;18.90;62.89;97764.17;108313;1268;22534;-83
2022/10/06 12:09:41;;;;;;;4.00;2.30;;;;;;;19.04;62.25;97758.45;108269;1270;24178;-82
2022/10/06 12:12:52;;;;;;;3.80;2.30;;;;;;;19.31;62.61;97758.02;108356;1268;23880;-82